Time;durP1;ratioP1;P1;durP2;ratioP2;P2;SDS_P1;SDS_P2;PMS_P1;PMS_P2;Temp;Humidity;BMP_temperature;BMP_pressure;BME280_temperature;BME280_humidity;BME280_pressure;Samples;Min_cycle;Max_cycle;Signal;HPM_P1;HPM_P2
2021/10/29 00:01:31;;;;;;;33.50;21.40;;;9.50;99.90;;;;;;4936888;28;20043;-81
2021/10/29 00:06:47;;;;;;;34.30;21.08;;;9.50;99.90;;;;;;4941188;28;20051;-78
2021/10/29 00:09:46;;;;;;;29.25;19.98;;;9.40;99.90;;;;;;4962783;28;20533;-78
2021/10/29 00:13:01;;;;;;;32.88;19.88;;;10.00;99.90;;;;;;4934364;28;20101;-78
2021/10/29 00:16:21;;;;;;;30.52;20.48;;;9.40;99.90;;;;;;4912248;29;20051;-77
2021/10/29 00:19:17;;;;;;;30.00;20.50;;;9.50;99.90;;;;;;4945181;28;20047;-81
2021/10/29 00:22:20;;;;;;;33.95;20.40;;;9.40;99.90;;;;;;4949804;28;20061;-81
2021/10/29 00:25:00;;;;;;;;;;;9.40;99.90;;;;;;4933033;28;20498;-81
2021/10/29 00:27:26;;;;;;;30.42;20.17;;;9.40;99.90;;;;;;4966237;28;19918;-81
2021/10/29 00:29:54;;;;;;;32.35;20.90;;;9.30;99.90;;;;;;4936532;29;20505;-81
2021/10/29 00:32:20;;;;;;;33.55;22.13;;;9.30;99.90;;;;;;4950775;28;20490;-81
2021/10/29 00:34:46;;;;;;;33.13;21.75;;;9.30;99.90;;;;;;4939675;28;20051;-81
2021/10/29 00:37:13;;;;;;;35.05;21.92;;;9.30;99.90;;;;;;4935322;28;20106;-81
2021/10/29 00:39:38;;;;;;;34.22;22.17;;;9.30;99.90;;;;;;4927372;28;20070;-81
2021/10/29 00:42:05;;;;;;;31.23;21.35;;;9.20;99.90;;;;;;4968365;28;20082;-80
2021/10/29 00:44:31;;;;;;;35.55;21.88;;;9.20;99.90;;;;;;4936807;29;20039;-81
2021/10/29 00:46:57;;;;;;;39.50;21.77;;;9.30;99.90;;;;;;4949932;28;20106;-81
2021/10/29 00:49:23;;;;;;;37.72;22.15;;;9.20;99.90;;;;;;4934131;28;20406;-81
2021/10/29 00:51:49;;;;;;;35.90;22.25;;;9.20;99.90;;;;;;4958054;29;20035;-80
2021/10/29 00:54:17;;;;;;;35.25;22.33;;;9.20;99.90;;;;;;4975655;28;20118;-81
2021/10/29 01:00:09;;;;;;;34.90;20.85;;;9.20;99.90;;;;;;4959163;28;20130;-81
2021/10/29 01:02:35;;;;;;;37.53;22.35;;;9.20;99.90;;;;;;4942016;29;20118;-81
2021/10/29 01:05:04;;;;;;;34.00;22.23;;;9.20;99.90;;;;;;4942408;29;20086;-81
2021/10/29 01:07:31;;;;;;;32.35;20.10;;;9.60;99.90;;;;;;4972388;28;20065;-81
2021/10/29 01:09:57;;;;;;;31.45;21.27;;;9.20;99.90;;;;;;4934555;29;20050;-82
2021/10/29 01:12:22;;;;;;;35.05;21.30;;;9.20;99.90;;;;;;4936625;29;20039;-82
2021/10/29 01:14:59;;;;;;;34.28;21.80;;;9.20;99.90;;;;;;4930989;29;20462;-81
2021/10/29 01:17:26;;;;;;;34.60;22.15;;;9.20;99.90;;;;;;4934457;29;20595;-81
2021/10/29 01:19:53;;;;;;;35.67;21.80;;;9.10;99.90;;;;;;4932430;29;20048;-81
2021/10/29 01:22:20;;;;;;;34.75;20.38;;;9.20;99.90;;;;;;4934351;29;20546;-81
2021/10/29 01:24:46;;;;;;;34.22;21.17;;;9.20;99.90;;;;;;4931785;29;20427;-81
2021/10/29 01:27:14;;;;;;;36.15;21.85;;;9.10;99.90;;;;;;4932899;29;20131;-81
2021/10/29 01:29:41;;;;;;;32.22;21.30;;;9.20;99.90;;;;;;4934541;29;20149;-81
2021/10/29 01:32:08;;;;;;;34.97;21.02;;;9.10;99.90;;;;;;4932032;29;20118;-81
2021/10/29 01:34:35;;;;;;;36.08;21.60;;;9.10;99.90;;;;;;4929183;28;20078;-81
2021/10/29 01:37:04;;;;;;;38.45;21.48;;;9.10;99.90;;;;;;4931914;29;20059;-81
2021/10/29 01:39:29;;;;;;;32.00;20.85;;;9.10;99.90;;;;;;4934037;29;20050;-81
2021/10/29 01:41:55;;;;;;;37.58;22.27;;;9.10;99.90;;;;;;4935786;29;20043;-81
2021/10/29 01:44:21;;;;;;;34.03;20.88;;;9.10;99.90;;;;;;4934614;29;20031;-78
2021/10/29 01:46:46;;;;;;;31.85;21.45;;;9.20;99.90;;;;;;4931245;29;20043;-77
2021/10/29 01:49:12;;;;;;;34.38;21.77;;;9.10;99.90;;;;;;4931921;29;20051;-78
2021/10/29 01:51:38;;;;;;;32.35;20.58;;;9.10;99.90;;;;;;4946906;29;20534;-78
2021/10/29 01:54:03;;;;;;;31.67;19.45;;;9.10;99.90;;;;;;4928985;28;20050;-78
2021/10/29 01:56:29;;;;;;;31.30;19.55;;;9.10;99.90;;;;;;4946388;29;20047;-78
2021/10/29 01:58:55;;;;;;;36.95;21.83;;;9.10;99.90;;;;;;4930881;29;20328;-79
2021/10/29 02:01:21;;;;;;;33.80;21.45;;;9.10;99.90;;;;;;4916265;29;20041;-81
2021/10/29 02:03:47;;;;;;;31.98;21.40;;;9.10;99.90;;;;;;4915143;29;20400;-81
2021/10/29 02:06:13;;;;;;;31.58;20.73;;;9.10;99.90;;;;;;4932935;29;20050;-81
2021/10/29 02:08:39;;;;;;;28.30;19.90;;;9.10;99.90;;;;;;4931838;28;20043;-79
2021/10/29 02:11:05;;;;;;;32.03;20.13;;;9.10;99.90;;;;;;4934706;29;20134;-79
2021/10/29 02:13:30;;;;;;;35.75;21.02;;;9.10;99.90;;;;;;4927092;29;20086;-79
2021/10/29 02:15:56;;;;;;;32.35;20.52;;;9.00;99.90;;;;;;4934463;28;20449;-79
2021/10/29 02:18:22;;;;;;;31.45;20.27;;;9.00;99.90;;;;;;4931722;29;20062;-79
2021/10/29 02:20:48;;;;;;;34.83;20.25;;;9.00;99.90;;;;;;4932958;29;20031;-81
2021/10/29 02:23:15;;;;;;;29.75;20.17;;;9.00;99.90;;;;;;4949213;29;20166;-79
2021/10/29 02:25:44;;;;;;;31.58;20.45;;;9.10;99.90;;;;;;4931700;29;20884;-79
2021/10/29 02:28:15;;;;;;;31.05;20.23;;;9.00;99.90;;;;;;4933178;29;20057;-78
2021/10/29 02:30:42;;;;;;;31.67;19.88;;;9.10;99.90;;;;;;4949723;28;20055;-79
2021/10/29 02:33:08;;;;;;;33.88;21.60;;;9.00;99.90;;;;;;4916046;29;20038;-81
2021/10/29 02:35:33;;;;;;;33.25;20.77;;;9.00;99.90;;;;;;4931131;29;20048;-79
2021/10/29 02:37:59;;;;;;;32.90;20.05;;;9.00;99.90;;;;;;4929596;29;20063;-78
2021/10/29 02:40:25;;;;;;;30.95;19.35;;;9.00;99.90;;;;;;4932105;28;20103;-79
2021/10/29 02:42:51;;;;;;;30.48;19.80;;;9.10;99.90;;;;;;4934424;29;20055;-79
2021/10/29 02:45:16;;;;;;;32.28;20.25;;;9.00;99.90;;;;;;4932109;29;20083;-79
2021/10/29 02:47:47;;;;;;;31.02;19.35;;;9.20;99.90;;;;;;4933243;29;20066;-78
2021/10/29 02:50:17;;;;;;;31.45;20.33;;;9.00;99.90;;;;;;4921416;29;20095;-79
2021/10/29 02:52:43;;;;;;;30.58;18.83;;;9.00;99.90;;;;;;4936051;29;20062;-81
2021/10/29 02:55:10;;;;;;;32.60;19.52;;;9.00;99.90;;;;;;4935934;29;20047;-81
2021/10/29 02:57:36;;;;;;;29.95;18.83;;;9.10;99.90;;;;;;4936506;29;20031;-79
2021/10/29 03:00:07;;;;;;;28.65;18.50;;;9.10;99.90;;;;;;4932793;29;20399;-78
2021/10/29 03:02:34;;;;;;;28.50;18.20;;;9.10;99.90;;;;;;4949670;28;20039;-79
2021/10/29 03:05:04;;;;;;;35.10;18.55;;;9.10;99.90;;;;;;4950531;28;20534;-79
2021/10/29 03:07:30;;;;;;;28.98;18.33;;;9.10;99.90;;;;;;4932585;29;20061;-79
2021/10/29 03:09:56;;;;;;;25.58;18.02;;;9.10;99.90;;;;;;4936031;29;20043;-79
2021/10/29 03:12:22;;;;;;;28.42;18.15;;;9.10;99.90;;;;;;4937922;29;20055;-78
2021/10/29 03:14:48;;;;;;;27.92;17.95;;;9.10;99.90;;;;;;4933323;29;20051;-79
2021/10/29 03:17:13;;;;;;;28.38;18.50;;;9.10;99.90;;;;;;4936034;29;20046;-79
2021/10/29 03:19:39;;;;;;;27.80;18.35;;;9.10;99.90;;;;;;4932949;29;20049;-78
2021/10/29 03:22:05;;;;;;;30.33;17.95;;;9.10;99.90;;;;;;4922974;29;20066;-79
2021/10/29 03:24:31;;;;;;;25.65;17.13;;;9.10;99.90;;;;;;4936763;29;20046;-78
2021/10/29 03:26:57;;;;;;;29.83;17.90;;;9.20;99.90;;;;;;4947277;29;20052;-79
2021/10/29 03:29:22;;;;;;;27.80;17.40;;;9.10;99.90;;;;;;4918691;29;20151;-78
2021/10/29 03:31:48;;;;;;;29.27;17.38;;;9.10;99.90;;;;;;4934879;29;20042;-79
2021/10/29 03:34:13;;;;;;;24.70;17.23;;;9.10;99.90;;;;;;4937015;29;20058;-79
2021/10/29 03:36:40;;;;;;;25.75;17.35;;;9.20;99.90;;;;;;4950743;29;20069;-78
2021/10/29 03:39:12;;;;;;;32.08;18.42;;;9.20;99.90;;;;;;4918938;28;20043;-79
2021/10/29 03:41:49;;;;;;;25.90;17.00;;;9.30;99.90;;;;;;4937155;29;20039;-79
2021/10/29 03:44:23;;;;;;;31.60;17.63;;;9.20;99.90;;;;;;4952009;28;20078;-79
2021/10/29 03:46:49;;;;;;;25.27;16.85;;;9.20;99.90;;;;;;4967237;28;20039;-81
2021/10/29 03:51:51;;;;;;;29.10;17.33;;;9.10;99.90;;;;;;4933528;29;20478;-80
2021/10/29 03:54:27;;;;;;;25.65;16.38;;;9.10;99.90;;;;;;4935672;29;20051;-79
2021/10/29 03:57:23;;;;;;;28.67;17.98;;;9.20;99.90;;;;;;4927126;29;20122;-81
2021/10/29 03:59:41;;;;;;;25.48;17.00;;;9.20;99.90;;;;;;4933776;29;20154;-81
2021/10/29 04:02:11;;;;;;;29.13;17.73;;;9.20;99.90;;;;;;4933413;29;20150;-79
2021/10/29 04:04:37;;;;;;;25.77;16.95;;;9.10;99.90;;;;;;4933915;28;20449;-81
2021/10/29 04:07:03;;;;;;;29.65;17.13;;;9.00;99.90;;;;;;4946472;28;20051;-79
2021/10/29 04:09:29;;;;;;;25.58;16.83;;;9.10;99.90;;;;;;4931635;29;20035;-81
2021/10/29 04:11:54;;;;;;;29.23;17.42;;;9.10;99.90;;;;;;4932628;29;20135;-79
2021/10/29 04:14:23;;;;;;;29.00;17.48;;;9.00;99.90;;;;;;4919407;28;20468;-79
2021/10/29 04:16:48;;;;;;;33.72;17.02;;;9.00;99.90;;;;;;4934332;28;20043;-79
2021/10/29 04:19:16;;;;;;;30.58;18.05;;;9.00;99.90;;;;;;4934369;28;20057;-81
2021/10/29 04:21:42;;;;;;;29.25;17.48;;;8.90;99.90;;;;;;4933185;29;20039;-82
2021/10/29 04:24:08;;;;;;;26.83;17.02;;;9.10;99.90;;;;;;4936813;28;20035;-79
2021/10/29 04:26:35;;;;;;;31.95;17.52;;;9.20;99.90;;;;;;4932499;29;20054;-80
2021/10/29 04:29:12;;;;;;;30.77;16.92;;;9.10;99.90;;;;;;4932036;29;20050;-79
2021/10/29 04:31:46;;;;;;;28.30;16.95;;;9.10;99.90;;;;;;4949268;28;20504;-79
2021/10/29 04:34:12;;;;;;;29.00;17.55;;;9.20;99.90;;;;;;4966253;28;20067;-81
2021/10/29 04:36:38;;;;;;;27.02;17.05;;;9.20;99.90;;;;;;4930889;29;20164;-79
2021/10/29 04:39:10;;;;;;;28.60;17.08;;;9.10;99.90;;;;;;4933963;29;20106;-79
2021/10/29 04:41:35;;;;;;;30.08;17.02;;;9.30;99.90;;;;;;4949177;29;20146;-78
2021/10/29 04:44:01;;;;;;;25.38;16.25;;;9.20;99.90;;;;;;4949399;28;20149;-78
2021/10/29 04:46:27;;;;;;;25.05;16.88;;;9.20;99.90;;;;;;4935292;29;20216;-78
2021/10/29 04:48:52;;;;;;;30.95;17.20;;;9.20;99.90;;;;;;4952782;29;20762;-81
2021/10/29 04:51:18;;;;;;;26.67;16.23;;;9.20;99.90;;;;;;4933895;29;20483;-78
2021/10/29 04:53:44;;;;;;;30.13;17.92;;;9.20;99.90;;;;;;4933155;29;20525;-79
2021/10/29 04:56:09;;;;;;;27.13;16.67;;;9.20;99.90;;;;;;4935374;29;20502;-81
2021/10/29 04:58:35;;;;;;;27.05;16.15;;;9.20;99.90;;;;;;4951191;29;20106;-78
2021/10/29 05:01:01;;;;;;;26.75;16.30;;;9.20;99.90;;;;;;4932636;29;20114;-78
2021/10/29 05:03:26;;;;;;;25.52;16.73;;;9.20;99.90;;;;;;4934240;29;20053;-79
2021/10/29 05:05:52;;;;;;;27.65;16.27;;;9.20;99.90;;;;;;4934356;29;20464;-79
2021/10/29 05:08:17;;;;;;;25.45;15.75;;;9.30;99.90;;;;;;4931209;29;20054;-79
2021/10/29 05:10:43;;;;;;;25.50;16.77;;;9.10;99.90;;;;;;4934276;29;20055;-78
2021/10/29 05:13:09;;;;;;;30.08;16.55;;;9.10;99.90;;;;;;4947461;29;20529;-79
2021/10/29 05:15:34;;;;;;;24.08;16.20;;;9.10;99.90;;;;;;4934798;29;20541;-79
2021/10/29 05:18:01;;;;;;;30.98;16.67;;;9.20;99.90;;;;;;4932520;29;20403;-79
2021/10/29 05:20:27;;;;;;;28.48;16.23;;;9.20;99.90;;;;;;4932319;29;20046;-79
2021/10/29 05:22:52;;;;;;;28.40;16.23;;;9.10;99.90;;;;;;4930570;28;20478;-79
2021/10/29 05:25:18;;;;;;;23.52;16.00;;;9.10;99.90;;;;;;4967982;28;20237;-79
2021/10/29 05:27:44;;;;;;;26.02;16.20;;;9.10;99.90;;;;;;4900568;29;20146;-78
2021/10/29 05:30:11;;;;;;;26.65;16.45;;;9.10;99.90;;;;;;4933460;29;20390;-80
2021/10/29 05:32:37;;;;;;;25.02;15.98;;;9.00;99.90;;;;;;4917258;29;20043;-80
2021/10/29 05:35:05;;;;;;;28.98;17.10;;;9.00;99.90;;;;;;4930069;29;20050;-81
2021/10/29 05:37:33;;;;;;;25.92;16.20;;;9.00;99.90;;;;;;4933401;28;20058;-79
2021/10/29 05:39:59;;;;;;;24.83;15.60;;;9.10;99.90;;;;;;4916647;28;20062;-81
2021/10/29 05:42:26;;;;;;;27.25;15.65;;;9.10;99.90;;;;;;4934504;29;20043;-79
2021/10/29 05:44:52;;;;;;;31.50;16.50;;;9.10;99.90;;;;;;4932074;29;20574;-79
2021/10/29 05:47:18;;;;;;;25.15;15.90;;;9.10;99.90;;;;;;4950369;28;20031;-78
2021/10/29 05:49:44;;;;;;;26.77;16.52;;;9.10;99.90;;;;;;4930881;29;20218;-78
2021/10/29 05:52:16;;;;;;;28.50;16.08;;;9.10;99.90;;;;;;4930173;29;20054;-78
2021/10/29 05:55:12;;;;;;;28.48;15.98;;;9.10;99.90;;;;;;4965292;28;20183;-80
2021/10/29 05:57:36;;;;;;;23.33;15.40;;;9.10;99.90;;;;;;4932150;29;20047;-77
2021/10/29 06:00:04;;;;;;;28.30;15.85;;;9.10;99.90;;;;;;4934029;29;20324;-78
2021/10/29 06:02:30;;;;;;;20.83;13.40;;;9.10;99.90;;;;;;4914446;28;20490;-78
2021/10/29 06:04:56;;;;;;;26.27;14.40;;;9.20;99.90;;;;;;4932068;29;20114;-77
2021/10/29 06:07:22;;;;;;;23.35;14.85;;;9.60;99.90;;;;;;4932571;29;20483;-80
2021/10/29 06:09:48;;;;;;;23.90;14.75;;;9.50;99.90;;;;;;4932765;29;20325;-78
2021/10/29 06:12:13;;;;;;;23.65;14.48;;;9.50;99.90;;;;;;4937810;29;20035;-78
2021/10/29 06:14:39;;;;;;;24.92;15.35;;;9.40;99.90;;;;;;4931295;29;20110;-75
2021/10/29 06:17:10;;;;;;;23.02;14.65;;;9.30;99.90;;;;;;4930643;29;20490;-78
2021/10/29 06:19:35;;;;;;;26.95;15.50;;;9.30;99.90;;;;;;4928625;29;20047;-78
2021/10/29 06:22:35;;;;;;;22.90;14.90;;;9.20;99.90;;;;;;4933498;28;20049;-79
2021/10/29 06:24:54;;;;;;;25.48;14.93;;;9.30;99.90;;;;;;4929404;29;20062;-79
2021/10/29 06:29:47;;;;;;;21.13;14.63;;;9.20;99.90;;;;;;4923563;29;20094;-77
2021/10/29 06:32:15;;;;;;;23.35;14.30;;;9.20;99.90;;;;;;4929628;29;20040;-78
2021/10/29 06:34:41;;;;;;;26.10;14.50;;;9.20;99.90;;;;;;4932168;29;20043;-77
2021/10/29 06:37:07;;;;;;;26.80;14.82;;;9.20;99.90;;;;;;4932324;29;20043;-77
2021/10/29 06:39:34;;;;;;;19.13;13.60;;;9.20;99.90;;;;;;4928151;29;20093;-76
2021/10/29 06:42:05;;;;;;;25.30;14.93;;;9.20;99.90;;;;;;4930376;28;20145;-77
2021/10/29 06:47:34;;;;;;;24.13;14.32;;;9.20;99.90;;;;;;4929898;29;20101;-77
2021/10/29 07:00:37;;;;;;;21.42;14.38;;;9.30;99.90;;;;;;4947138;28;20046;-78
2021/10/29 07:39:58;;;;;;;26.55;13.80;;;9.50;99.90;;;;;;4947383;29;20492;-79
2021/10/29 07:41:16;;;;;;;22.02;13.27;;;10.00;99.90;;;;;;4951124;29;20595;-77
2021/10/29 07:43:56;;;;;;;19.30;12.88;;;10.00;99.90;;;;;;4936773;29;20133;-78
2021/10/29 07:46:22;;;;;;;22.15;12.60;;;10.10;99.90;;;;;;4932869;29;20040;-76
2021/10/29 07:48:48;;;;;;;24.75;12.90;;;10.10;99.90;;;;;;4937953;29;20047;-76
2021/10/29 07:51:14;;;;;;;20.35;12.55;;;10.10;99.90;;;;;;4920588;29;20055;-76
2021/10/29 07:53:41;;;;;;;20.85;12.65;;;10.20;99.90;;;;;;4938035;29;20398;-76
2021/10/29 07:56:07;;;;;;;21.20;12.38;;;10.20;99.90;;;;;;4955700;28;20038;-77
2021/10/29 07:58:35;;;;;;;22.25;12.88;;;10.30;99.90;;;;;;4938171;29;20139;-78
2021/10/29 08:01:01;;;;;;;17.65;12.02;;;10.40;99.90;;;;;;4936507;29;20412;-81
2021/10/29 08:03:27;;;;;;;25.70;12.05;;;10.50;99.90;;;;;;4936283;29;20085;-80
2021/10/29 08:05:54;;;;;;;18.17;10.88;;;10.50;99.90;;;;;;4936074;28;20047;-79
2021/10/29 08:08:20;;;;;;;20.23;11.85;;;10.60;99.90;;;;;;4936720;29;20217;-80
2021/10/29 08:10:47;;;;;;;18.50;10.98;;;10.60;99.90;;;;;;4938774;29;20043;-80
2021/10/29 08:13:13;;;;;;;16.73;10.73;;;10.70;99.90;;;;;;4923110;29;20049;-80
2021/10/29 08:15:40;;;;;;;18.05;11.10;;;10.80;99.90;;;;;;4938723;29;20074;-80
2021/10/29 08:18:07;;;;;;;23.35;11.40;;;10.90;99.90;;;;;;4938822;29;20039;-80
2021/10/29 08:20:34;;;;;;;19.63;11.23;;;10.90;99.90;;;;;;4938654;29;20039;-80
2021/10/29 08:23:01;;;;;;;17.27;10.27;;;10.90;99.90;;;;;;4921719;29;20092;-80
2021/10/29 08:25:26;;;;;;;19.35;10.35;;;11.10;99.90;;;;;;4938150;29;20055;-80
2021/10/29 08:27:53;;;;;;;18.10;10.80;;;11.10;99.90;;;;;;4922821;29;20043;-80
2021/10/29 08:30:22;;;;;;;15.90;10.38;;;11.20;99.90;;;;;;4938495;29;20043;-80
2021/10/29 08:32:47;;;;;;;18.90;10.60;;;11.30;99.90;;;;;;4938423;29;20343;-80
2021/10/29 08:35:13;;;;;;;17.70;10.07;;;11.30;99.90;;;;;;4923240;29;20051;-80
2021/10/29 08:37:41;;;;;;;17.98;10.27;;;11.30;99.90;;;;;;4938051;29;20035;-80
2021/10/29 08:40:08;;;;;;;17.35;10.38;;;11.40;99.90;;;;;;4922001;29;20035;-80
2021/10/29 08:42:34;;;;;;;20.30;10.90;;;11.40;99.90;;;;;;4938346;28;20455;-80
2021/10/29 08:45:08;;;;;;;21.63;10.65;;;11.50;99.90;;;;;;4938141;29;20069;-80
2021/10/29 08:47:39;;;;;;;20.08;9.57;;;11.50;99.90;;;;;;4917810;29;20494;-80
2021/10/29 08:50:07;;;;;;;16.20;9.82;;;11.60;99.90;;;;;;4938263;29;20129;-80
2021/10/29 08:52:33;;;;;;;13.73;9.82;;;11.60;99.90;;;;;;4922383;29;20113;-80
2021/10/29 08:55:00;;;;;;;16.20;10.20;;;11.70;99.90;;;;;;4922500;29;20502;-80
2021/10/29 08:57:27;;;;;;;15.80;9.68;;;11.80;99.90;;;;;;4940384;29;20043;-79
2021/10/29 08:59:57;;;;;;;14.48;9.55;;;11.80;99.90;;;;;;4940645;29;20070;-79
2021/10/29 09:02:26;;;;;;;14.85;9.40;;;11.90;99.90;;;;;;4919128;29;20082;-80
2021/10/29 09:33:01;;;;;;;17.10;10.05;;;12.70;99.90;;;;;;4897989;29;20103;-80
2021/10/29 09:35:30;;;;;;;14.13;9.05;;;12.70;99.90;;;;;;4898319;29;20048;-80
2021/10/29 09:38:04;;;;;;;13.07;8.60;;;12.80;99.90;;;;;;4897346;29;20044;-80
2021/10/29 09:40:35;;;;;;;14.02;8.85;;;12.90;99.90;;;;;;4898586;29;20063;-80
2021/10/29 09:43:18;;;;;;;17.83;8.82;;;13.00;99.90;;;;;;4920553;29;20623;-80
2021/10/29 09:46:00;;;;;;;16.10;8.52;;;13.10;99.90;;;;;;4936182;29;20035;-80
2021/10/29 09:48:41;;;;;;;15.18;8.23;;;13.20;99.90;;;;;;4937379;29;20339;-80
2021/10/29 09:51:10;;;;;;;12.07;8.43;;;13.30;99.90;;;;;;4937524;29;20167;-80
2021/10/29 09:53:48;;;;;;;16.02;8.70;;;13.50;99.90;;;;;;4936430;29;20102;-80
2021/10/29 09:58:52;;;;;;;14.27;8.27;;;13.60;99.90;;;;;;4936850;29;20058;-80
2021/10/29 10:01:25;;;;;;;15.30;7.85;;;13.70;99.90;;;;;;4936898;29;20043;-80
2021/10/29 10:03:52;;;;;;;11.80;7.85;;;13.80;99.90;;;;;;4936678;29;20160;-80
2021/10/29 10:06:25;;;;;;;12.35;8.25;;;14.00;99.90;;;;;;4936478;29;20058;-80
2021/10/29 10:08:57;;;;;;;15.50;7.30;;;14.10;99.90;;;;;;4935934;29;20078;-80
2021/10/29 10:11:28;;;;;;;13.13;8.10;;;14.20;99.90;;;;;;4937039;29;20118;-80
2021/10/29 10:13:58;;;;;;;14.90;8.15;;;14.20;99.90;;;;;;4937351;29;20112;-80
2021/10/29 10:16:33;;;;;;;10.98;7.60;;;14.40;99.90;;;;;;4936933;29;20055;-80
2021/10/29 10:18:59;;;;;;;18.65;7.80;;;14.50;99.90;;;;;;4953803;28;20122;-80
2021/10/29 10:21:31;;;;;;;10.50;7.38;;;14.50;99.90;;;;;;4936645;29;20435;-80
2021/10/29 10:24:00;;;;;;;15.00;7.28;;;14.60;99.90;;;;;;4935751;29;20047;-80
2021/10/29 10:26:36;;;;;;;12.55;7.53;;;14.50;99.90;;;;;;4952054;29;20051;-80
2021/10/29 10:46:09;;;;;;;10.80;6.60;;;15.50;99.90;;;;;;4936542;29;20047;-80
2021/10/29 10:48:50;;;;;;;11.80;6.50;;;15.60;99.90;;;;;;4952468;29;20047;-80
2021/10/29 10:51:36;;;;;;;11.07;6.22;;;15.70;99.90;;;;;;4936471;29;20079;-80
2021/10/29 10:54:14;;;;;;;10.57;6.47;;;15.80;99.90;;;;;;4935553;29;20133;-80
2021/10/29 10:57:07;;;;;;;14.48;6.75;;;15.90;99.90;;;;;;4936437;28;20047;-80
2021/10/29 10:59:52;;;;;;;10.32;6.13;;;16.00;99.90;;;;;;4936432;29;20402;-80
2021/10/29 11:11:00;;;;;;;14.75;5.60;;;16.30;99.90;;;;;;4951797;29;20055;-79
2021/10/29 11:13:59;;;;;;;11.10;5.90;;;16.50;99.90;;;;;;4970482;29;20043;-80
2021/10/29 11:16:32;;;;;;;10.35;5.72;;;16.60;99.90;;;;;;4933275;29;20067;-80
2021/10/29 11:19:12;;;;;;;8.85;5.60;;;16.50;99.90;;;;;;4917454;29;20102;-80
2021/10/29 11:21:54;;;;;;;9.48;5.35;;;16.60;99.90;;;;;;4932223;29;20052;-80
2021/10/29 11:24:32;;;;;;;9.15;5.13;;;16.70;99.90;;;;;;4916043;29;20056;-80
2021/10/29 11:27:11;;;;;;;8.27;4.80;;;16.90;99.90;;;;;;4886228;29;20052;-80
2021/10/29 11:29:48;;;;;;;9.30;4.82;;;16.90;99.90;;;;;;4900806;29;20048;-80
2021/10/29 11:32:17;;;;;;;9.43;4.80;;;17.10;99.90;;;;;;4916704;29;20484;-81
2021/10/29 11:34:44;;;;;;;7.50;4.95;;;17.10;99.90;;;;;;4900167;29;20151;-80
2021/10/29 11:37:10;;;;;;;10.00;5.22;;;17.10;99.90;;;;;;4901035;29;20222;-80
2021/10/29 11:39:35;;;;;;;10.70;4.63;;;17.20;99.90;;;;;;4899862;29;20496;-80
2021/10/29 11:42:01;;;;;;;7.95;4.70;;;17.20;99.90;;;;;;4916054;29;20183;-80
2021/10/29 11:44:27;;;;;;;9.80;4.82;;;17.10;99.90;;;;;;4900650;29;20056;-80
2021/10/29 11:46:55;;;;;;;10.55;5.00;;;17.20;99.90;;;;;;4915948;29;20544;-81
2021/10/29 11:49:28;;;;;;;10.23;4.50;;;17.30;99.90;;;;;;4900407;29;20393;-79
2021/10/29 11:51:55;;;;;;;7.28;4.53;;;17.30;99.90;;;;;;4884637;29;20055;-81
2021/10/29 11:54:26;;;;;;;13.93;5.03;;;17.40;99.90;;;;;;4937142;29;20054;-80
2021/10/29 12:07:59;;;;;;;7.40;4.63;;;17.50;99.90;;;;;;4976449;28;20050;-81
2021/10/29 12:10:25;;;;;;;9.63;4.93;;;17.40;99.90;;;;;;4977318;28;20484;-80
2021/10/29 12:12:56;;;;;;;11.15;4.57;;;17.40;99.90;;;;;;4976960;28;20050;-80
2021/10/29 12:15:25;;;;;;;9.23;4.60;;;17.30;99.90;;;;;;4989975;28;20046;-80
2021/10/29 12:18:03;;;;;;;9.15;4.65;;;17.40;99.90;;;;;;4976952;28;20351;-81
2021/10/29 12:20:38;;;;;;;12.27;4.93;;;17.50;99.90;;;;;;4977232;28;20069;-80
2021/10/29 12:23:12;;;;;;;6.70;4.55;;;17.80;99.90;;;;;;4975852;28;20411;-81
2021/10/29 13:01:41;;;;;;;8.85;4.10;;;18.30;99.90;;;;;;4992640;28;20050;-81
2021/10/29 13:04:11;;;;;;;11.77;4.53;;;18.30;99.90;;;;;;4990035;28;20110;-79
2021/10/29 13:06:47;;;;;;;8.90;4.22;;;18.30;99.90;;;;;;4957262;28;20051;-80
2021/10/29 13:09:24;;;;;;;8.88;4.35;;;18.20;99.90;;;;;;4973347;28;20062;-80
2021/10/29 13:11:58;;;;;;;7.80;4.00;;;18.40;99.90;;;;;;4973040;28;20054;-80
2021/10/29 13:14:37;;;;;;;6.90;4.13;;;18.20;99.90;;;;;;4956164;28;20143;-81
2021/10/29 13:17:07;;;;;;;9.18;4.00;;;18.40;99.90;;;;;;4921840;29;20495;-81
2021/10/29 13:38:05;;;;;;;7.47;4.32;;;17.30;99.90;;;;;;4952482;29;20074;-80
2021/10/29 13:57:05;;;;;;;9.35;3.72;;;17.20;99.90;;;;;;4956084;28;20058;-81
2021/10/29 14:29:45;;;;;;;7.70;3.13;;;17.80;99.90;;;;;;4971418;28;20047;-82
2021/10/29 14:34:49;;;;;;;7.22;2.97;;;18.00;99.90;;;;;;4971426;28;20351;-80
2021/10/29 14:37:28;;;;;;;6.38;3.00;;;17.90;99.90;;;;;;4971883;28;20109;-79
2021/10/29 14:43:19;;;;;;;6.45;3.55;;;17.90;99.90;;;;;;4974599;28;20062;-80
2021/10/29 14:48:29;;;;;;;11.65;3.47;;;17.80;99.90;;;;;;4975164;28;20116;-79
2021/10/29 15:02:48;;;;;;;8.75;3.75;;;17.00;99.90;;;;;;4882212;29;20048;-78
2021/10/29 15:05:10;;;;;;;8.93;4.20;;;16.90;99.90;;;;;;4881218;29;20073;-77
2021/10/29 15:26:54;;;;;;;11.02;3.83;;;16.20;99.90;;;;;;4879078;29;20328;-81
2021/10/29 15:33:09;;;;;;;6.88;3.50;;;15.80;99.90;;;;;;4927996;29;20488;-81
2021/10/29 15:45:38;;;;;;;6.70;3.30;;;15.20;99.90;;;;;;4919850;29;20059;-80
2021/10/29 15:48:09;;;;;;;7.28;3.85;;;15.20;99.90;;;;;;4919842;28;20063;-80
2021/10/29 15:50:36;;;;;;;11.73;3.65;;;15.10;99.90;;;;;;4935416;29;20043;-81
2021/10/29 15:53:12;;;;;;;8.73;3.90;;;15.10;99.90;;;;;;4933378;29;20086;-81
2021/10/29 16:01:00;;;;;;;5.00;3.30;;;14.90;99.90;;;;;;4958644;28;20355;-81
2021/10/29 16:03:54;;;;;;;10.75;3.97;;;14.80;99.90;;;;;;4957443;28;20046;-80
2021/10/29 16:17:12;;;;;;;8.63;3.72;;;14.50;99.90;;;;;;4948865;29;20051;-81
2021/10/29 16:19:39;;;;;;;10.45;4.32;;;14.40;99.90;;;;;;4957733;28;20051;-81
2021/10/29 16:22:08;;;;;;;6.68;3.83;;;14.50;99.90;;;;;;4957916;28;20355;-80
2021/10/29 16:24:37;;;;;;;10.55;4.10;;;14.40;99.90;;;;;;4957214;28;20044;-81
2021/10/29 16:27:03;;;;;;;10.00;4.25;;;14.40;99.90;;;;;;4957927;28;20051;-80
2021/10/29 16:29:29;;;;;;;6.57;4.07;;;14.30;99.90;;;;;;4957839;28;20090;-81
2021/10/29 16:31:56;;;;;;;11.65;3.95;;;14.30;99.90;;;;;;4957850;28;20042;-80
2021/10/29 16:34:22;;;;;;;8.63;4.30;;;14.20;99.90;;;;;;4941690;28;20043;-81
2021/10/29 16:36:48;;;;;;;7.30;4.15;;;14.20;99.90;;;;;;4958007;28;20061;-81
2021/10/29 16:39:14;;;;;;;8.48;3.72;;;14.20;99.90;;;;;;4940647;28;20058;-80
2021/10/29 16:41:41;;;;;;;6.88;3.80;;;14.10;99.90;;;;;;4955577;28;20042;-80
2021/10/29 16:44:06;;;;;;;6.97;3.88;;;14.10;99.90;;;;;;4956592;28;20043;-80
2021/10/29 16:46:32;;;;;;;10.68;4.13;;;14.10;99.90;;;;;;4950368;28;20037;-81
2021/10/29 16:49:00;;;;;;;8.85;4.28;;;14.00;99.90;;;;;;4957198;28;20039;-81
2021/10/29 16:51:26;;;;;;;6.88;4.03;;;14.00;99.90;;;;;;4957512;28;20064;-81
2021/10/29 16:53:52;;;;;;;8.77;4.05;;;14.00;99.90;;;;;;4956526;28;20042;-81
2021/10/29 16:56:17;;;;;;;8.60;4.22;;;14.00;99.90;;;;;;4957216;28;20062;-81
2021/10/29 16:58:43;;;;;;;6.10;3.95;;;14.10;99.90;;;;;;4957320;28;20105;-80
2021/10/29 17:01:09;;;;;;;7.35;3.90;;;14.10;99.90;;;;;;4957600;28;20117;-80
2021/10/29 17:03:34;;;;;;;6.70;4.10;;;14.10;99.90;;;;;;4957106;28;20070;-81
2021/10/29 17:06:00;;;;;;;9.77;4.00;;;14.10;99.90;;;;;;4957722;28;20059;-81
2021/10/29 17:08:26;;;;;;;6.70;4.07;;;14.20;99.90;;;;;;4956503;28;20079;-81
2021/10/29 17:10:53;;;;;;;13.23;4.47;;;14.30;99.90;;;;;;4957292;28;20134;-80
2021/10/29 17:13:19;;;;;;;9.68;3.92;;;14.20;99.90;;;;;;4958022;28;20398;-81
2021/10/29 17:15:45;;;;;;;6.55;3.70;;;14.20;99.90;;;;;;4941058;28;20038;-81
2021/10/29 17:18:11;;;;;;;9.00;4.38;;;14.20;99.90;;;;;;4956677;28;20046;-80
2021/10/29 17:20:37;;;;;;;8.90;4.28;;;14.20;99.90;;;;;;4958872;28;20126;-78
2021/10/29 17:23:04;;;;;;;9.00;4.22;;;14.20;99.90;;;;;;4956518;28;20039;-80
2021/10/29 17:25:30;;;;;;;9.48;4.32;;;14.30;99.90;;;;;;4958360;28;20414;-80
2021/10/29 17:27:58;;;;;;;10.80;5.97;;;14.30;99.90;;;;;;4957500;28;20443;-79
2021/10/29 17:30:24;;;;;;;6.65;4.65;;;14.30;99.90;;;;;;4957451;28;20491;-80
2021/10/29 17:32:50;;;;;;;8.98;5.10;;;14.30;99.90;;;;;;4956843;28;20046;-80
2021/10/29 17:35:18;;;;;;;7.30;4.95;;;14.30;99.90;;;;;;4956334;28;20043;-80
2021/10/29 17:37:44;;;;;;;9.52;4.15;;;14.30;99.90;;;;;;4973566;28;20138;-80
2021/10/29 17:40:11;;;;;;;7.43;4.55;;;14.20;99.90;;;;;;4991888;28;20081;-80
2021/10/29 17:42:37;;;;;;;9.30;4.40;;;14.20;99.90;;;;;;4991487;28;20053;-79
2021/10/29 17:45:09;;;;;;;9.90;4.88;;;14.10;99.90;;;;;;4992217;28;20138;-80
2021/10/29 17:47:36;;;;;;;11.02;4.78;;;14.10;99.90;;;;;;4991515;28;20039;-79